createdAt,value
2022-12-03T00:00:13.264Z,1024.5
2022-12-03T00:01:02.158Z,1024.4
2022-12-03T00:02:02.886Z,1024.4
2022-12-03T00:03:03.241Z,1024.4
2022-12-03T00:04:02.967Z,1024.5
2022-12-03T00:05:01.783Z,1024.5
2022-12-03T00:06:01.843Z,1024.5
2022-12-03T00:07:01.730Z,1024.5
2022-12-03T00:08:01.977Z,1024.4
2022-12-03T00:09:01.714Z,1024.5
2022-12-03T00:10:01.832Z,1024.4
2022-12-03T00:11:01.710Z,1024.5
2022-12-03T00:12:02.910Z,1024.4
2022-12-03T00:13:02.661Z,1024.5
2022-12-03T00:14:02.751Z,1024.5
2022-12-03T00:15:02.623Z,1024.5
2022-12-03T00:16:02.931Z,1024.5
2022-12-03T00:17:02.101Z,1024.5
2022-12-03T00:18:02.267Z,1024.5
2022-12-03T00:19:02.125Z,1024.4
2022-12-03T00:20:02.189Z,1024.5
2022-12-03T00:21:02.028Z,1024.4
2022-12-03T00:22:02.221Z,1024.5
2022-12-03T00:23:02.071Z,1024.4
2022-12-03T00:24:02.161Z,1024.5
2022-12-03T00:25:02.103Z,1024.4
2022-12-03T00:26:02.255Z,1024.5
2022-12-03T00:27:02.416Z,1024.5
2022-12-03T00:28:02.248Z,1024.4
2022-12-03T00:29:02.453Z,1024.4
2022-12-03T00:30:02.354Z,1024.5
2022-12-03T00:31:02.649Z,1024.5
2022-12-03T00:32:01.685Z,1024.4
2022-12-03T00:33:01.897Z,1024.5
2022-12-03T00:34:01.743Z,1024.4
2022-12-03T00:35:01.834Z,1024.4
2022-12-03T00:36:01.721Z,1024.4
2022-12-03T00:37:01.818Z,1024.4
2022-12-03T00:38:01.703Z,1024.4
2022-12-03T00:39:02.758Z,1024.4
2022-12-03T00:40:02.657Z,1024.4
2022-12-03T00:41:02.710Z,1024.4
2022-12-03T00:42:02.590Z,1024.4
2022-12-03T00:43:02.681Z,1024.3
2022-12-03T00:44:02.530Z,1024.3
2022-12-03T00:45:02.720Z,1024.3
2022-12-03T00:46:02.778Z,1024.4
2022-12-03T00:47:02.084Z,1024.3
2022-12-03T00:48:01.889Z,1024.4
2022-12-03T00:49:01.761Z,1024.2
2022-12-03T00:50:01.800Z,1024.2
2022-12-03T00:51:02.754Z,1024.2
2022-12-03T00:52:02.660Z,1024.3
2022-12-03T00:53:02.723Z,1024.3
2022-12-03T00:54:02.592Z,1024.3
2022-12-03T00:55:02.661Z,1024.2
2022-12-03T00:56:02.538Z,1024.2
2022-12-03T00:57:02.566Z,1024.3
2022-12-03T00:58:02.496Z,1024.2
2022-12-03T00:59:02.558Z,1024.2
2022-12-03T01:00:02.386Z,1024.3
2022-12-03T01:01:02.428Z,1024.3
2022-12-03T01:02:02.894Z,1024.2
2022-12-03T01:03:02.657Z,1024.2
2022-12-03T01:04:02.712Z,1024.3
2022-12-03T01:05:03.015Z,1024.3
2022-12-03T01:06:01.878Z,1024.4
2022-12-03T01:07:01.772Z,1024.3
2022-12-03T01:08:01.958Z,1024.4
2022-12-03T01:09:01.724Z,1024.4
2022-12-03T01:10:01.792Z,1024.4
2022-12-03T01:11:02.747Z,1024.4
2022-12-03T01:12:02.622Z,1024.4
2022-12-03T01:13:02.692Z,1024.4
2022-12-03T01:14:02.570Z,1024.4
2022-12-03T01:15:02.653Z,1024.4
2022-12-03T01:16:02.774Z,1024.3
2022-12-03T01:17:01.919Z,1024.3
2022-12-03T01:18:02.041Z,1024.3
2022-12-03T01:19:01.884Z,1024.3
2022-12-03T01:20:01.972Z,1024.3
2022-12-03T01:21:01.984Z,1024.3
2022-12-03T01:22:02.015Z,1024.3
2022-12-03T01:23:01.961Z,1024.2
2022-12-03T01:24:01.996Z,1024.2
2022-12-03T01:25:01.866Z,1024.2
2022-12-03T01:26:01.894Z,1024.1
2022-12-03T01:27:01.817Z,1024.1
2022-12-03T01:28:01.825Z,1024.2
2022-12-03T01:29:01.721Z,1024.1
2022-12-03T01:30:01.809Z,1024.1
2022-12-03T01:31:03.141Z,1024.2
2022-12-03T01:32:02.018Z,1024.2
2022-12-03T01:33:02.101Z,1024.1
2022-12-03T01:34:01.938Z,1024.1
2022-12-03T01:35:02.005Z,1024.1
2022-12-03T01:36:01.795Z,1024.1
2022-12-03T01:37:01.849Z,1024.1
2022-12-03T01:38:01.728Z,1024.1
2022-12-03T01:39:01.804Z,1024.1
2022-12-03T01:40:01.694Z,1024.1
2022-12-03T01:41:02.204Z,1024.1
2022-12-03T01:42:02.788Z,1024.1
2022-12-03T01:43:02.729Z,1024.2
2022-12-03T01:44:02.714Z,1024.2
2022-12-03T01:45:02.620Z,1024.2
2022-12-03T01:46:02.719Z,1024.2
2022-12-03T01:47:02.294Z,1024.3
2022-12-03T01:48:02.123Z,1024.3
2022-12-03T01:49:01.983Z,1024.3
2022-12-03T01:50:02.144Z,1024.4
2022-12-03T01:51:02.009Z,1024.3
2022-12-03T01:52:02.144Z,1024.2
2022-12-03T01:53:02.231Z,1024.3
2022-12-03T01:54:02.120Z,1024.3
2022-12-03T01:55:02.281Z,1024.3
2022-12-03T01:56:02.109Z,1024.3
2022-12-03T01:57:02.068Z,1024.3
2022-12-03T01:58:01.945Z,1024.3
2022-12-03T01:59:02.004Z,1024.2
2022-12-03T02:00:01.877Z,1024.2
2022-12-03T02:01:01.905Z,1024.2
2022-12-03T02:02:02.290Z,1024.1
2022-12-03T02:03:02.086Z,1024.1
2022-12-03T02:04:02.505Z,1024.1
2022-12-03T02:05:02.338Z,1024.2
2022-12-03T02:06:02.391Z,1024.1
2022-12-03T02:07:02.319Z,1024.1
2022-12-03T02:08:02.793Z,1024.2
2022-12-03T02:09:02.568Z,1024.1
2022-12-03T02:10:02.677Z,1024.1
2022-12-03T02:11:02.541Z,1024.1
2022-12-03T02:12:02.619Z,1024.2
2022-12-03T02:13:02.483Z,1024.2
2022-12-03T02:14:02.584Z,1024.2
2022-12-03T02:15:02.443Z,1024.3
2022-12-03T02:16:02.760Z,1024.3
2022-12-03T02:17:01.800Z,1024.3
2022-12-03T02:18:01.841Z,1024.4
2022-12-03T02:19:01.727Z,1024.3
2022-12-03T02:20:01.808Z,1024.2
2022-12-03T02:21:02.740Z,1024.3
2022-12-03T02:22:02.601Z,1024.2
2022-12-03T02:23:02.720Z,1024.3
2022-12-03T02:24:02.587Z,1024.3
2022-12-03T02:25:02.674Z,1024.3
2022-12-03T02:26:02.543Z,1024.3
2022-12-03T02:27:02.592Z,1024.3
2022-12-03T02:28:02.477Z,1024.3
2022-12-03T02:29:02.611Z,1024.3
2022-12-03T02:30:02.469Z,1024.4
2022-12-03T02:31:02.715Z,1024.3
2022-12-03T02:32:02.681Z,1024.3
2022-12-03T02:33:02.773Z,1024.4
2022-12-03T02:34:02.633Z,1024.4
2022-12-03T02:35:02.729Z,1024.4
2022-12-03T02:36:04.626Z,1024.4
2022-12-03T02:37:02.293Z,1024.3
2022-12-03T02:38:02.331Z,1024.3
2022-12-03T02:39:02.310Z,1024.3
2022-12-03T02:40:02.248Z,1024.4
2022-12-03T02:41:02.333Z,1024.3
2022-12-03T02:42:02.244Z,1024.3
2022-12-03T02:43:02.165Z,1024.3
2022-12-03T02:44:02.265Z,1024.3
2022-12-03T02:45:06.254Z,1024.3
2022-12-03T02:46:01.981Z,1024.2
2022-12-03T02:47:02.539Z,1024.2
2022-12-03T02:48:02.416Z,1024.2
2022-12-03T02:49:02.264Z,1024.2
2022-12-03T02:50:02.322Z,1024.2
2022-12-03T02:51:02.276Z,1024.1
2022-12-03T02:52:02.246Z,1024.2
2022-12-03T02:53:02.138Z,1024.2
2022-12-03T02:54:02.039Z,1024.2
2022-12-03T02:55:02.115Z,1024.2
2022-12-03T02:56:01.961Z,1024.2
2022-12-03T02:57:02.061Z,1024.1
2022-12-03T02:58:01.971Z,1024.1
2022-12-03T02:59:01.841Z,1024.1
2022-12-03T03:00:01.752Z,1024.1
2022-12-03T03:01:02.066Z,1024.1
2022-12-03T03:02:02.490Z,1024.2
2022-12-03T03:03:02.288Z,1024.2
2022-12-03T03:04:02.293Z,1024.2
2022-12-03T03:05:02.285Z,1024.1
2022-12-03T03:06:02.151Z,1024.2
2022-12-03T03:07:02.226Z,1024.1
2022-12-03T03:08:02.495Z,1024.1
2022-12-03T03:09:02.289Z,1024.1
2022-12-03T03:10:02.232Z,1024.2
2022-12-03T03:11:02.251Z,1024.2
2022-12-03T03:12:02.100Z,1024.1
2022-12-03T03:13:02.124Z,1024.2
2022-12-03T03:14:01.986Z,1024.2
2022-12-03T03:15:02.087Z,1024.2
2022-12-03T03:16:02.305Z,1024.1
2022-12-03T03:17:02.158Z,1024.2
2022-12-03T03:18:02.218Z,1024.2
2022-12-03T03:19:02.067Z,1024.2
2022-12-03T03:20:02.039Z,1024.2
2022-12-03T03:21:01.975Z,1024.2
2022-12-03T03:22:01.965Z,1024.2
2022-12-03T03:23:01.792Z,1024.2
2022-12-03T03:24:01.835Z,1024.2
2022-12-03T03:25:01.696Z,1024.2
2022-12-03T03:26:02.769Z,1024.2
2022-12-03T03:27:02.647Z,1024.2
2022-12-03T03:28:02.711Z,1024.2
2022-12-03T03:29:02.577Z,1024.2
2022-12-03T03:30:02.696Z,1024.2
2022-12-03T03:31:02.576Z,1024.2
2022-12-03T03:32:01.865Z,1024.2
2022-12-03T03:33:01.811Z,1024.1
2022-12-03T03:34:01.701Z,1024.2
2022-12-03T03:35:02.784Z,1024.2
2022-12-03T03:36:02.671Z,1024.1
2022-12-03T03:37:02.742Z,1024.1
2022-12-03T03:38:02.607Z,1024.1
2022-12-03T03:39:02.638Z,1024.1
2022-12-03T03:40:02.552Z,1024.1
2022-12-03T03:41:02.612Z,1024.1
2022-12-03T03:42:02.490Z,1024.1
2022-12-03T03:43:02.573Z,1024
2022-12-03T03:44:02.450Z,1024
2022-12-03T03:45:02.528Z,1024.1
2022-12-03T03:46:02.705Z,1024.1
2022-12-03T03:47:01.744Z,1024.1
2022-12-03T03:48:01.834Z,1024.1
2022-12-03T03:49:01.767Z,1024.2
2022-12-03T03:50:01.834Z,1024.1
2022-12-03T03:51:02.719Z,1024.1
2022-12-03T03:52:02.573Z,1024.2
2022-12-03T03:53:02.601Z,1024.1
2022-12-03T03:54:02.556Z,1024.2
2022-12-03T03:55:02.605Z,1024.1
2022-12-03T03:56:02.462Z,1024.1
2022-12-03T03:57:02.504Z,1024.1
2022-12-03T03:58:02.438Z,1024.1
2022-12-03T03:59:02.319Z,1024.1
2022-12-03T04:00:02.379Z,1024.2
2022-12-03T04:01:02.551Z,1024.1
2022-12-03T04:02:02.437Z,1024.1
2022-12-03T04:03:02.520Z,1024.2
2022-12-03T04:04:02.772Z,1024.1
2022-12-03T04:05:02.654Z,1024.1
2022-12-03T04:06:02.573Z,1024.1
2022-12-03T04:07:02.503Z,1024.1
2022-12-03T04:08:02.834Z,1024.2
2022-12-03T04:09:02.581Z,1024.1
2022-12-03T04:10:02.634Z,1024.1
2022-12-03T04:11:02.529Z,1024.1
2022-12-03T04:12:02.571Z,1024.1
2022-12-03T04:13:02.431Z,1024.2
2022-12-03T04:14:02.497Z,1024.1
2022-12-03T04:15:02.406Z,1024.1
2022-12-03T04:16:02.448Z,1024.1
2022-12-03T04:17:02.011Z,1024.1
2022-12-03T04:18:02.003Z,1024.2
2022-12-03T04:19:01.720Z,1024.1
2022-12-03T04:20:01.774Z,1024.2
2022-12-03T04:21:02.741Z,1024.2
2022-12-03T04:22:02.749Z,1024.2
2022-12-03T04:23:02.595Z,1024.2
2022-12-03T04:24:02.565Z,1024.2
2022-12-03T04:25:02.622Z,1024.2
2022-12-03T04:26:02.500Z,1024.2
2022-12-03T04:27:02.535Z,1024.2
2022-12-03T04:28:02.461Z,1024.2
2022-12-03T04:29:02.530Z,1024.2
2022-12-03T04:30:02.520Z,1024.2
2022-12-03T04:31:02.771Z,1024.2
2022-12-03T04:32:01.776Z,1024.2
2022-12-03T04:33:01.838Z,1024.2
2022-12-03T04:34:01.771Z,1024.1
2022-12-03T04:35:02.093Z,1024.1
2022-12-03T04:36:02.064Z,1024.2
2022-12-03T04:37:01.896Z,1024.2
2022-12-03T04:38:01.747Z,1024.2
2022-12-03T04:39:01.779Z,1024.2
2022-12-03T04:40:01.715Z,1024.2
2022-12-03T04:41:02.685Z,1024.1
2022-12-03T04:42:02.600Z,1024.1
2022-12-03T04:43:02.687Z,1024.2
2022-12-03T04:44:02.575Z,1024.2
2022-12-03T04:45:02.623Z,1024.1
2022-12-03T04:46:03.005Z,1024.1
2022-12-03T04:47:01.846Z,1024.1
2022-12-03T04:48:01.890Z,1024.1
2022-12-03T04:49:01.748Z,1024.1
2022-12-03T04:50:01.793Z,1024.1
2022-12-03T04:51:02.796Z,1024.1
2022-12-03T04:52:02.646Z,1024.2
2022-12-03T04:53:02.699Z,1024.1
2022-12-03T04:54:02.578Z,1024.1
2022-12-03T04:55:02.663Z,1024.1
2022-12-03T04:56:02.548Z,1024
2022-12-03T04:57:02.612Z,1024.1
2022-12-03T04:58:02.463Z,1024
2022-12-03T04:59:02.509Z,1024
2022-12-03T05:00:02.435Z,1024
2022-12-03T05:01:02.699Z,1024
2022-12-03T05:02:02.701Z,1024
2022-12-03T05:03:02.792Z,1024
2022-12-03T05:04:02.728Z,1024
2022-12-03T05:05:02.563Z,1024.1
2022-12-03T05:06:02.647Z,1024
2022-12-03T05:07:02.504Z,1024
2022-12-03T05:08:02.958Z,1024
2022-12-03T05:09:01.839Z,1023.9
2022-12-03T05:10:01.706Z,1024
2022-12-03T05:11:02.762Z,1024
2022-12-03T05:12:02.610Z,1023.9
2022-12-03T05:13:02.681Z,1023.9
2022-12-03T05:14:02.568Z,1024
2022-12-03T05:15:02.621Z,1023.9
2022-12-03T05:16:02.482Z,1024
2022-12-03T05:17:01.961Z,1024
2022-12-03T05:18:01.797Z,1024
2022-12-03T05:19:02.793Z,1024
2022-12-03T05:20:02.679Z,1024
2022-12-03T05:21:02.691Z,1023.9
2022-12-03T05:22:02.564Z,1024
2022-12-03T05:23:02.635Z,1023.9
2022-12-03T05:24:02.513Z,1023.9
2022-12-03T05:25:02.607Z,1023.9
2022-12-03T05:26:02.501Z,1023.8
2022-12-03T05:27:02.553Z,1023.9
2022-12-03T05:28:02.418Z,1023.9
2022-12-03T05:29:02.476Z,1023.9
2022-12-03T05:30:02.408Z,1023.9
2022-12-03T05:31:02.681Z,1023.9
2022-12-03T05:32:02.632Z,1023.9
2022-12-03T05:33:01.758Z,1024
2022-12-03T05:34:01.704Z,1023.9
2022-12-03T05:35:02.763Z,1023.9
2022-12-03T05:36:02.607Z,1023.9
2022-12-03T05:37:02.641Z,1023.9
2022-12-03T05:38:02.509Z,1023.9
2022-12-03T05:39:02.574Z,1023.9
2022-12-03T05:40:02.449Z,1023.9
2022-12-03T05:41:02.448Z,1023.9
2022-12-03T05:42:02.360Z,1023.9
2022-12-03T05:43:02.259Z,1023.9
2022-12-03T05:44:02.347Z,1024
2022-12-03T05:45:02.291Z,1024
2022-12-03T05:46:02.404Z,1023.9
2022-12-03T05:47:02.494Z,1024
2022-12-03T05:48:02.571Z,1024.1
2022-12-03T05:49:02.368Z,1024.1
2022-12-03T05:50:02.427Z,1024
2022-12-03T05:51:02.381Z,1024
2022-12-03T05:52:02.223Z,1024.1
2022-12-03T05:53:02.249Z,1024.1
2022-12-03T05:54:02.089Z,1024
2022-12-03T05:55:02.139Z,1024
2022-12-03T05:56:01.920Z,1024
2022-12-03T05:57:01.897Z,1024
2022-12-03T05:58:01.723Z,1024.1
2022-12-03T05:59:01.809Z,1024
2022-12-03T06:00:02.763Z,1024
2022-12-03T06:01:02.590Z,1024
2022-12-03T06:02:01.933Z,1024
2022-12-03T06:03:02.244Z,1024
2022-12-03T06:04:02.331Z,1024
2022-12-03T06:05:02.075Z,1024.1
2022-12-03T06:06:02.155Z,1024
2022-12-03T06:07:02.034Z,1024
2022-12-03T06:08:02.421Z,1024
2022-12-03T06:09:02.246Z,1024
2022-12-03T06:10:02.104Z,1024.1
2022-12-03T06:11:02.187Z,1024
2022-12-03T06:12:01.927Z,1024
2022-12-03T06:13:01.887Z,1024.1
2022-12-03T06:14:01.767Z,1024
2022-12-03T06:15:01.826Z,1024
2022-12-03T06:16:03.057Z,1024
2022-12-03T06:17:01.835Z,1024
2022-12-03T06:18:01.823Z,1024
2022-12-03T06:19:02.782Z,1024
2022-12-03T06:20:02.640Z,1024
2022-12-03T06:21:02.652Z,1024
2022-12-03T06:22:02.493Z,1024
2022-12-03T06:23:02.544Z,1024
2022-12-03T06:24:02.398Z,1024.1
2022-12-03T06:25:07.702Z,1024
2022-12-03T06:26:02.483Z,1024.1
2022-12-03T06:27:02.358Z,1024.1
2022-12-03T06:28:02.384Z,1024.1
2022-12-03T06:29:02.289Z,1024.1
2022-12-03T06:30:02.135Z,1024.1
2022-12-03T06:31:02.464Z,1024.2
2022-12-03T06:32:02.593Z,1024.2
2022-12-03T06:33:02.472Z,1024.1
2022-12-03T06:34:02.482Z,1024.2
2022-12-03T06:35:02.469Z,1024.1
2022-12-03T06:36:02.318Z,1024.2
2022-12-03T06:37:02.324Z,1024.2
2022-12-03T06:38:02.254Z,1024.3
2022-12-03T06:39:02.133Z,1024.3
2022-12-03T06:40:02.145Z,1024.3
2022-12-03T06:41:01.950Z,1024.3
2022-12-03T06:42:01.959Z,1024.2
2022-12-03T06:43:01.762Z,1024.3
2022-12-03T06:44:01.829Z,1024.2
2022-12-03T06:45:02.764Z,1024.2
2022-12-03T06:46:02.805Z,1024.3
2022-12-03T06:47:02.266Z,1024.3
2022-12-03T06:48:02.160Z,1024.3
2022-12-03T06:49:02.013Z,1024.3
2022-12-03T06:50:02.042Z,1024.3
2022-12-03T06:51:02.017Z,1024.3
2022-12-03T06:52:01.815Z,1024.3
2022-12-03T06:53:01.757Z,1024.4
2022-12-03T06:54:01.811Z,1024.3
2022-12-03T06:55:02.796Z,1024.4
2022-12-03T06:56:02.648Z,1024.4
2022-12-03T06:57:02.603Z,1024.5
2022-12-03T06:58:02.483Z,1024.4
2022-12-03T06:59:02.494Z,1024.4
2022-12-03T07:00:02.491Z,1024.4
2022-12-03T07:01:02.333Z,1024.4
2022-12-03T07:02:02.967Z,1024.4
2022-12-03T07:03:02.061Z,1024.4
2022-12-03T07:04:01.837Z,1024.4
2022-12-03T07:05:01.796Z,1024.4
2022-12-03T07:06:02.389Z,1024.5
2022-12-03T07:07:02.288Z,1024.4
2022-12-03T07:08:02.671Z,1024.4
2022-12-03T07:09:02.528Z,1024.4
2022-12-03T07:10:02.392Z,1024.4
2022-12-03T07:11:02.441Z,1024.4
2022-12-03T07:12:02.387Z,1024.4
2022-12-03T07:13:02.219Z,1024.3
2022-12-03T07:14:06.231Z,1024.3
2022-12-03T07:15:01.948Z,1024.3
2022-12-03T07:16:02.137Z,1024.3
2022-12-03T07:17:02.011Z,1024.3
2022-12-03T07:18:02.021Z,1024.4
2022-12-03T07:19:01.905Z,1024.3
2022-12-03T07:20:01.978Z,1024.4
2022-12-03T07:21:01.733Z,1024.3
2022-12-03T07:22:01.775Z,1024.4
2022-12-03T07:23:02.756Z,1024.4
2022-12-03T07:24:02.599Z,1024.3
2022-12-03T07:25:02.653Z,1024.4
2022-12-03T07:26:02.474Z,1024.4
2022-12-03T07:27:02.516Z,1024.4
2022-12-03T07:28:02.472Z,1024.4
2022-12-03T07:29:02.402Z,1024.4
2022-12-03T07:30:02.308Z,1024.4
2022-12-03T07:31:02.573Z,1024.5
2022-12-03T07:32:01.690Z,1024.5
2022-12-03T07:33:02.743Z,1024.4
2022-12-03T07:34:02.640Z,1024.5
2022-12-03T07:35:02.677Z,1024.4
2022-12-03T07:36:02.557Z,1024.5
2022-12-03T07:37:02.593Z,1024.5
2022-12-03T07:38:02.354Z,1024.5
2022-12-03T07:39:02.438Z,1024.5
2022-12-03T07:40:02.322Z,1024.5
2022-12-03T07:41:02.104Z,1024.5
2022-12-03T07:42:02.105Z,1024.6
2022-12-03T07:43:01.946Z,1024.6
2022-12-03T07:44:02.008Z,1024.6
2022-12-03T07:45:01.743Z,1024.6
2022-12-03T07:46:01.758Z,1024.5
2022-12-03T07:47:02.068Z,1024.5
2022-12-03T07:48:01.811Z,1024.5
2022-12-03T07:49:01.685Z,1024.4
2022-12-03T07:50:02.732Z,1024.5
2022-12-03T07:51:02.615Z,1024.4
2022-12-03T07:52:02.618Z,1024.4
2022-12-03T07:53:02.515Z,1024.5
2022-12-03T07:54:02.553Z,1024.4
2022-12-03T07:55:02.405Z,1024.4
2022-12-03T07:56:02.458Z,1024.4
2022-12-03T07:57:02.639Z,1024.5
2022-12-03T07:58:02.333Z,1024.5
2022-12-03T07:59:02.389Z,1024.4
2022-12-03T08:00:02.402Z,1024.5
2022-12-03T08:01:02.466Z,1024.4
2022-12-03T08:02:02.885Z,1024.5
2022-12-03T08:03:02.696Z,1024.4
2022-12-03T08:04:02.607Z,1024.4
2022-12-03T08:05:02.629Z,1024.4
2022-12-03T08:06:02.473Z,1024.4
2022-12-03T08:07:02.488Z,1024.4
2022-12-03T08:08:02.697Z,1024.4
2022-12-03T08:09:02.467Z,1024.4
2022-12-03T08:10:02.512Z,1024.3
2022-12-03T08:11:02.387Z,1024.4
2022-12-03T08:12:02.425Z,1024.3
2022-12-03T08:13:02.326Z,1024.4
2022-12-03T08:14:02.242Z,1024.4
2022-12-03T08:15:02.074Z,1024.4
2022-12-03T08:16:02.266Z,1024.4
2022-12-03T08:17:02.160Z,1024.4
2022-12-03T08:18:02.230Z,1024.4
2022-12-03T08:19:02.343Z,1024.3
2022-12-03T08:20:02.025Z,1024.4
2022-12-03T08:21:02.035Z,1024.4
2022-12-03T08:22:02.129Z,1024.3
2022-12-03T08:23:01.891Z,1024.3
2022-12-03T08:24:01.743Z,1024.4
2022-12-03T08:25:01.808Z,1024.4
2022-12-03T08:26:02.754Z,1024.4
2022-12-03T08:27:02.576Z,1024.3
2022-12-03T08:28:02.647Z,1024.3
2022-12-03T08:29:02.493Z,1024.3
2022-12-03T08:30:02.550Z,1024.3
2022-12-03T08:31:02.482Z,1024.2
2022-12-03T08:32:02.801Z,1024.3
2022-12-03T08:33:02.619Z,1024.4
2022-12-03T08:34:02.430Z,1024.3
2022-12-03T08:35:02.496Z,1024.3
2022-12-03T08:36:02.455Z,1024.3
2022-12-03T08:37:02.288Z,1024.3
2022-12-03T08:38:02.334Z,1024.3
2022-12-03T08:39:02.253Z,1024.4
2022-12-03T08:40:02.013Z,1024.4
2022-12-03T08:41:02.017Z,1024.4
2022-12-03T08:42:01.936Z,1024.5
2022-12-03T08:43:01.768Z,1024.4
2022-12-03T08:44:01.788Z,1024.5
2022-12-03T08:45:02.776Z,1024.5
2022-12-03T08:46:02.903Z,1024.5
2022-12-03T08:47:02.043Z,1024.6
2022-12-03T08:48:02.252Z,1024.5
2022-12-03T08:49:02.263Z,1024.5
2022-12-03T08:50:01.991Z,1024.5
2022-12-03T08:51:02.017Z,1024.5
2022-12-03T08:52:01.889Z,1024.5
2022-12-03T08:53:01.874Z,1024.4
2022-12-03T08:54:02.806Z,1024.4
2022-12-03T08:55:02.496Z,1024.4
2022-12-03T08:56:02.550Z,1024.4
2022-12-03T08:57:02.395Z,1024.4
2022-12-03T08:58:02.405Z,1024.4
2022-12-03T08:59:02.354Z,1024.5
2022-12-03T09:00:02.219Z,1024.5
2022-12-03T09:01:02.484Z,1024.5
2022-12-03T09:02:02.492Z,1024.5
2022-12-03T09:03:02.358Z,1024.6
2022-12-03T09:04:02.538Z,1024.6
2022-12-03T09:05:02.744Z,1024.6
2022-12-03T09:06:02.448Z,1024.6
2022-12-03T09:07:02.517Z,1024.6
2022-12-03T09:08:02.863Z,1024.6
2022-12-03T09:09:07.286Z,1024.5
2022-12-03T09:10:01.967Z,1024.5
2022-12-03T09:11:01.951Z,1024.6
2022-12-03T09:12:01.746Z,1024.6
2022-12-03T09:13:01.767Z,1024.6
2022-12-03T09:14:02.730Z,1024.6
2022-12-03T09:15:02.585Z,1024.6
2022-12-03T09:16:02.613Z,1024.7
2022-12-03T09:17:02.096Z,1024.5
2022-12-03T09:18:01.904Z,1024.5
2022-12-03T09:19:01.741Z,1024.5
2022-12-03T09:20:01.723Z,1024.5
2022-12-03T09:21:02.703Z,1024.5
2022-12-03T09:22:02.584Z,1024.6
2022-12-03T09:23:02.620Z,1024.6
2022-12-03T09:24:02.465Z,1024.6
2022-12-03T09:25:02.503Z,1024.6
2022-12-03T09:26:02.394Z,1024.6
2022-12-03T09:27:02.271Z,1024.6
2022-12-03T09:28:02.314Z,1024.6
2022-12-03T09:29:02.057Z,1024.6
2022-12-03T09:30:02.096Z,1024.5
2022-12-03T09:31:01.914Z,1024.6
2022-12-03T09:32:02.455Z,1024.6
2022-12-03T09:33:02.345Z,1024.6
2022-12-03T09:34:02.311Z,1024.6
2022-12-03T09:35:02.126Z,1024.6
2022-12-03T09:36:02.129Z,1024.6
2022-12-03T09:37:01.957Z,1024.6
2022-12-03T09:38:02.009Z,1024.6
2022-12-03T09:39:01.857Z,1024.6
2022-12-03T09:40:01.848Z,1024.6
2022-12-03T09:41:01.867Z,1024.6
2022-12-03T09:42:02.734Z,1024.6
2022-12-03T09:43:02.530Z,1024.6
2022-12-03T09:44:07.760Z,1024.6
2022-12-03T09:45:02.387Z,1024.6
2022-12-03T09:46:02.694Z,1024.6
2022-12-03T09:47:01.716Z,1024.6
2022-12-03T09:48:02.755Z,1024.6
2022-12-03T09:49:02.563Z,1024.7
2022-12-03T09:50:02.583Z,1024.6
2022-12-03T09:51:02.450Z,1024.6
2022-12-03T09:52:02.437Z,1024.6
2022-12-03T09:53:02.732Z,1024.6
2022-12-03T09:54:02.671Z,1024.5
2022-12-03T09:55:02.740Z,1024.5
2022-12-03T09:56:02.616Z,1024.5
2022-12-03T09:57:02.615Z,1024.4
2022-12-03T09:58:02.456Z,1024.5
2022-12-03T09:59:02.547Z,1024.5
2022-12-03T10:00:02.434Z,1024.6
2022-12-03T10:01:02.379Z,1024.5
2022-12-03T10:02:03.036Z,1024.5
2022-12-03T10:03:01.853Z,1024.5
2022-12-03T10:04:01.899Z,1024.4
2022-12-03T10:05:02.979Z,1024.5
2022-12-03T10:06:01.719Z,1024.5
2022-12-03T10:07:02.745Z,1024.5
2022-12-03T10:08:02.820Z,1024.4
2022-12-03T10:09:02.674Z,1024.4
2022-12-03T10:10:02.514Z,1024.4
2022-12-03T10:11:02.536Z,1024.4
2022-12-03T10:12:02.400Z,1024.5
2022-12-03T10:13:02.367Z,1024.5
2022-12-03T10:14:02.291Z,1024.4
2022-12-03T10:15:02.084Z,1024.4
2022-12-03T10:16:02.118Z,1024.4
2022-12-03T10:17:02.563Z,1024.4
2022-12-03T10:18:02.321Z,1024.4
2022-12-03T10:19:02.333Z,1024.3
2022-12-03T10:20:02.297Z,1024.3
2022-12-03T10:21:02.076Z,1024.3
2022-12-03T10:22:02.122Z,1024.3
2022-12-03T10:23:01.933Z,1024.3
2022-12-03T10:24:01.889Z,1024.3
2022-12-03T10:25:01.761Z,1024.4
2022-12-03T10:26:01.813Z,1024.3
2022-12-03T10:27:02.750Z,1024.3
2022-12-03T10:28:02.608Z,1024.3
2022-12-03T10:29:02.636Z,1024.3
2022-12-03T10:30:02.514Z,1024.3
2022-12-03T10:31:02.816Z,1024.3
2022-12-03T10:32:01.802Z,1024.4
2022-12-03T10:33:01.827Z,1024.3
2022-12-03T10:34:02.710Z,1024.4
2022-12-03T10:35:02.647Z,1024.4
2022-12-03T10:36:02.667Z,1024.4
2022-12-03T10:37:02.519Z,1024.4
2022-12-03T10:38:02.572Z,1024.3
2022-12-03T10:39:02.404Z,1024.3
2022-12-03T10:40:02.476Z,1024.3
2022-12-03T10:41:02.443Z,1024.2
2022-12-03T10:42:02.246Z,1024.3
2022-12-03T10:43:02.173Z,1024.2
2022-12-03T10:44:02.089Z,1024.3
2022-12-03T10:45:02.124Z,1024.3
2022-12-03T10:46:05.280Z,1024.3
2022-12-03T10:47:02.694Z,1024.3
2022-12-03T10:48:02.555Z,1024.3
2022-12-03T10:49:02.407Z,1024.3
2022-12-03T10:50:02.456Z,1024.3
2022-12-03T10:51:02.390Z,1024.3
2022-12-03T10:52:02.253Z,1024.3
2022-12-03T10:53:02.219Z,1024.2
2022-12-03T10:54:02.019Z,1024.2
2022-12-03T10:55:02.024Z,1024.2
2022-12-03T10:56:01.925Z,1024.2
2022-12-03T10:57:01.918Z,1024.1
2022-12-03T10:58:01.735Z,1024.1
2022-12-03T10:59:02.742Z,1024.1
2022-12-03T11:00:02.646Z,1024.1
2022-12-03T11:01:02.793Z,1024
2022-12-03T11:02:02.271Z,1024.1
2022-12-03T11:03:02.130Z,1024.1
2022-12-03T11:04:02.268Z,1024
2022-12-03T11:05:02.042Z,1024.1
2022-12-03T11:06:02.033Z,1024.1
2022-12-03T11:07:01.827Z,1024.1
2022-12-03T11:08:02.156Z,1024.1
2022-12-03T11:09:09.524Z,1024.1
2022-12-03T11:10:02.218Z,1024.1
2022-12-03T11:11:02.223Z,1024.1
2022-12-03T11:12:02.059Z,1024.1
2022-12-03T11:13:02.069Z,1024.2
2022-12-03T11:14:01.957Z,1024.1
2022-12-03T11:15:01.958Z,1024.1
2022-12-03T11:16:02.109Z,1024.1
2022-12-03T11:17:02.426Z,1024.1
2022-12-03T11:18:02.419Z,1024.1
2022-12-03T11:19:02.457Z,1024.1
2022-12-03T11:20:02.301Z,1024.2
2022-12-03T11:21:02.222Z,1024.1
2022-12-03T11:22:02.065Z,1024.1
2022-12-03T11:23:02.042Z,1024.1
2022-12-03T11:24:01.890Z,1024.1
2022-12-03T11:25:01.884Z,1024.1
2022-12-03T11:26:01.769Z,1024.1
2022-12-03T11:27:02.705Z,1024.1
2022-12-03T11:28:02.588Z,1024
2022-12-03T11:29:02.663Z,1024.1
2022-12-03T11:30:02.554Z,1024
2022-12-03T11:31:02.894Z,1024
2022-12-03T11:32:01.725Z,1024
2022-12-03T11:33:02.720Z,1024
2022-12-03T11:34:02.608Z,1024
2022-12-03T11:35:02.668Z,1024
2022-12-03T11:36:02.516Z,1024
2022-12-03T11:37:02.681Z,1024
2022-12-03T11:38:02.394Z,1024
2022-12-03T11:39:02.364Z,1023.9
2022-12-03T11:40:02.361Z,1024
2022-12-03T11:41:02.228Z,1024
2022-12-03T11:42:02.318Z,1023.8
2022-12-03T11:43:02.288Z,1023.9
2022-12-03T11:44:02.111Z,1023.9
2022-12-03T11:45:02.176Z,1023.9
2022-12-03T11:46:05.183Z,1023.9
2022-12-03T11:47:02.777Z,1023.8
2022-12-03T11:48:02.767Z,1023.9
2022-12-03T11:49:02.599Z,1023.9
2022-12-03T11:50:02.687Z,1023.8
2022-12-03T11:51:02.486Z,1023.8
2022-12-03T11:52:02.596Z,1023.9
2022-12-03T11:53:02.482Z,1023.8
2022-12-03T11:54:02.300Z,1023.9
2022-12-03T11:55:02.245Z,1023.8
2022-12-03T11:56:05.212Z,1023.8
2022-12-03T11:57:01.934Z,1023.8
2022-12-03T11:58:01.886Z,1023.7
2022-12-03T11:59:01.718Z,1023.7
2022-12-03T12:00:02.084Z,1023.7
2022-12-03T12:01:01.760Z,1023.7
2022-12-03T12:02:02.605Z,1023.7
2022-12-03T12:03:02.952Z,1023.7
2022-12-03T12:04:01.868Z,1023.6
2022-12-03T12:05:02.762Z,1023.6
2022-12-03T12:06:02.604Z,1023.7
2022-12-03T12:07:02.663Z,1023.7
2022-12-03T12:08:02.969Z,1023.6
2022-12-03T12:09:01.821Z,1023.7
2022-12-03T12:10:02.772Z,1023.7
2022-12-03T12:11:02.641Z,1023.6
2022-12-03T12:12:02.669Z,1023.6
2022-12-03T12:13:02.504Z,1023.6
2022-12-03T12:14:02.505Z,1023.6
2022-12-03T12:15:02.460Z,1023.6
2022-12-03T12:16:02.613Z,1023.6
2022-12-03T12:17:02.547Z,1023.6
2022-12-03T12:18:02.529Z,1023.6
2022-12-03T12:19:02.377Z,1023.6
2022-12-03T12:20:02.407Z,1023.6
2022-12-03T12:21:02.362Z,1023.7
2022-12-03T12:22:02.364Z,1023.6
2022-12-03T12:23:02.227Z,1023.6
2022-12-03T12:24:02.121Z,1023.6
2022-12-03T12:25:02.174Z,1023.6
2022-12-03T12:26:02.009Z,1023.6
2022-12-03T12:27:02.227Z,1023.6
2022-12-03T12:28:01.971Z,1023.6
2022-12-03T12:29:02.152Z,1023.7
2022-12-03T12:30:01.915Z,1023.6
2022-12-03T12:31:02.039Z,1023.6
2022-12-03T12:32:02.609Z,1023.6